Wilton, ND (58579)

5:33 PM CST on February 06, 2016 (GMT -0600)
136 Ave NW | | Change Station
CLOSE
Current Station
Personal Weather Station
Location: Bismarck, ND
Elevation: 1932 ft
Nearby Weather Stations
Active Advisory: High Wind Warning

Elev 1932 ft 46.95 °N, 100.83 °W | Updated 21 seconds ago

Partly Cloudy
Partly Cloudy
47.5 °F
Feels Like 45 °F
N
5.6
Wind Variable Wind from NNW
Gusts 7.4 mph

Today
High -- | Low -- °F
--% Chance of Precip.
Yesterday
High -- | Low -- °F
Precip. -- in
Pressure 29.72 in
Visibility 10.0 miles
Clouds Overcast 8500 ft
Windchill 45 °F
Dew Point 24 °F
Humidity 39%
Rainfall 0.00 in
Snow Depth Not available.
8:02 AM 5:52 PM
Waning Crescent, 4% visible
METAR KBIS 062252Z 28015G25KT 10SM OVC085 12/M03 A2968 RMK AO2 SLP062 T01171028
Pressure 29.72 in
Visibility 10.0 miles
Clouds Overcast 8500 ft
Windchill 45 °F
Dew Point 24 °F
Humidity 39%
Rainfall 0.00 in
Snow Depth Not available.
8:02 AM 5:52 PM
Waning Crescent, 4% visible
METAR KBIS 062252Z 28015G25KT 10SM OVC085 12/M03 A2968 RMK AO2 SLP062 T01171028

10-Day Weather Forecast

Almanac

Astronomy

Feb. 06, 2016 Rise Set
Actual Time
Civil Twilight
Nautical Twilight
Astronomical Twilight
Moon
Length of Visible Light
Length of Day
Tomorrow will be .
, % of the Moon is Illuminated

Today's Extremes

State Highs State Lows

Community

WunderPhotos

Upload Photos

1,891,098 photos uploaded!

WunderBlog® & News

Nearby

Air Quality

  Air Quality AQ Index Pollutant
Not available.

Snow Depth

Station Depth Elevation

Earthquake Activity

City Distance Mag. Time & Date
Minimum magnitude displayed is 2.5.

Coastal Water Temperatures

Place Temperature

Stations

Nearby Weather Stations

Station Location Temp. Windchill Dew Point Humidity Wind Precip. Elev Updated Type
                   

Watches & Warnings

High Wind Warning
Issued: 1:54 PM MST Feb. 6, 2016 – National Weather Service

... High Wind Warning remains in effect from 6 PM CST /5 PM MST/
this evening to 6 am CST /5 am MST/ Monday...

* timing... this evening through late Sunday night.

* Winds... northwest winds gusting up to 65 mph.

* Impacts... travel may become hazardous over western and
portions of central North Dakota. Snow and blowing snow may
reduce visibilities on Sunday.

Precautionary/preparedness actions...

A High Wind Warning means a hazardous high wind event is expected
or occurring. Sustained wind speeds of at least 40 mph or gusts
of 58 mph or more can lead to property damage.



Jjs